Weather at Vostok Skiway

Public forecast

Using degrees Celsius for public forecast. Weather courtesy of forecast.io.

Closest aviation weather report (METAR) to Vostok Skiway

Closest report is South Pole Station Airport, 692.7 nm (1,282.9 km) S.

2024/05/29 23:50 (retrieved 1 hour ago)

NZSP 292350Z 01017KT 0800 BLSN FEW000 BKN020 M59/ A2878 RMK BLSN FEW000 CLN AIR 35019KT ALL WNDS GRID

Closest aviation forecast (TAF) to Vostok Skiway

Closest forecast is Queenstown International Airport, 2,435.5 nm (4,510.6 km) ENE.

2024/05/29 21:00 Ammendment (retrieved 4 hours ago)

AMD NZQN 292126Z 2921/3012 03005KT 9999 -RA SCT050 BKN070 FM300000 24010KT 9999 FEW050